Oakwood Village, Ohio
Current Conditions -  °F | °C
As of 3:53 PM on Thursday 23 Oct 2014 (Local Time) from KBKL Reporting Station
Broken Clouds Broken Clouds  
Wind Chill: 53°   Ceiling: 1700
Heat Index: 53°   Visibility: 10mi
Dew Point: 46°   Wind: 8mph
Humidity: 77%   Direction: 310°NW
Pressure: 30.15"   Gusts: NA
Location:  41.3816°N, 81.5301°W
Report Text: KBKL 231953Z 31007KT 10SM BKN017 12/08 A3015 RMK AO2 SLP209 T01170078
Loading
Personal Weather Stations






























Interactive Weather Map
Tropical Storm Tracking
New forecast layout! Learn more

10-Day Weather Forecast

Advertisements
Track Severe Weather on mobile